Abbeville, Mississippi
Current Conditions -  °F | °C
As of 4:55 PM on Tuesday 21 Oct 2014 (Local Time) from KUOX Reporting Station
Clear Clear  
Wind Chill: 23°   Ceiling: Unl
Heat Index: 23°   Visibility: 10mi
Dew Point:   Wind: 8mph
Humidity: 38%   Direction: 330°NNW
Pressure: 30.05"   Gusts: NA
Location:  34.5°N, 89.5°W
Report Text: KUOX 212155Z AUTO 33007KT 10SM CLR 23/08 A3005 RMK AO2 PWINO PNO
Loading
Personal Weather Stations






























Interactive Weather Map
Tropical Storm Tracking
New forecast layout! Learn more

10-Day Weather Forecast

Advertisements
Track Severe Weather on mobile